Andrus Island, California
Current Conditions -  °F | °C
As of 11:58 PM on Saturday 22 Nov 2014 (Local Time) from KSUU Reporting Station
Clear Clear  
Wind Chill:   Ceiling: Unl
Heat Index:   Visibility: 10mi
Dew Point:   Wind: 1mph
Humidity: 100%   Direction: 330°NNW
Pressure: 30.25"   Gusts: NA
Location:  38.1457°N, 121.624°W
Report Text: KSUU 230758Z AUTO 33001KT 10SM CLR 09/09 A3025 RMK AO2 SLP250 T00850085 402110077 $
Loading
Personal Weather Stations






























Interactive Weather Map New forecast layout! Learn more

10-Day Weather Forecast

Advertisements
Track Severe Weather on mobile